Time;durP1;ratioP1;P1;durP2;ratioP2;P2;SDS_P1;SDS_P2;PMS_P1;PMS_P2;Temp;Humidity;BMP_temperature;BMP_pressure;BME280_temperature;BME280_humidity;BME280_pressure;Samples;Min_cycle;Max_cycle;Signal;HPM_P1;HPM_P2
2022/01/04 00:00:22;;;;;;;7.28;4.10;;;6.10;99.90;;;;;;4902188;29;20389;-80
2022/01/04 00:02:49;;;;;;;6.15;3.85;;;6.10;99.90;;;;;;4902503;29;20405;-79
2022/01/04 00:05:15;;;;;;;8.88;4.28;;;6.10;99.90;;;;;;4886752;29;20396;-80
2022/01/04 00:07:40;;;;;;;6.73;3.80;;;6.10;99.90;;;;;;4905923;29;20448;-78
2022/01/04 00:10:10;;;;;;;6.63;4.00;;;6.10;99.90;;;;;;4906163;29;20452;-80
2022/01/04 00:15:21;;;;;;;7.82;4.00;;;6.20;99.90;;;;;;4906883;29;20409;-80
2022/01/04 00:17:47;;;;;;;6.40;3.75;;;6.20;99.90;;;;;;4906127;29;20369;-78
2022/01/04 00:20:13;;;;;;;8.43;3.83;;;6.20;99.90;;;;;;4905424;29;20383;-80
2022/01/04 00:22:38;;;;;;;8.77;3.67;;;6.20;99.90;;;;;;4907502;29;20742;-79
2022/01/04 00:25:05;;;;;;;8.77;4.07;;;6.10;99.90;;;;;;4908168;29;20420;-80
2022/01/04 00:27:31;;;;;;;6.05;3.72;;;6.10;99.90;;;;;;4891917;29;21210;-80
2022/01/04 00:29:57;;;;;;;7.38;3.70;;;6.00;99.90;;;;;;4908148;29;20748;-80
2022/01/04 00:32:22;;;;;;;6.25;3.70;;;6.00;99.90;;;;;;4903245;29;20853;-80
2022/01/04 00:34:49;;;;;;;7.00;3.20;;;6.10;99.90;;;;;;4903033;29;20508;-80
2022/01/04 00:37:15;;;;;;;6.70;3.33;;;6.00;99.90;;;;;;4901842;29;20472;-82
2022/01/04 00:39:41;;;;;;;7.63;3.40;;;6.10;99.90;;;;;;4886371;29;20429;-79
2022/01/04 00:42:07;;;;;;;4.63;3.10;;;6.10;99.90;;;;;;4903912;29;20473;-79
2022/01/04 00:44:32;;;;;;;7.18;3.22;;;6.10;99.90;;;;;;4904039;29;20409;-79
2022/01/04 00:46:59;;;;;;;7.38;3.45;;;6.10;99.90;;;;;;4904128;29;20389;-79
2022/01/04 00:49:24;;;;;;;8.50;3.90;;;6.10;99.90;;;;;;4904658;29;20378;-80
2022/01/04 00:51:53;;;;;;;6.87;3.63;;;6.10;99.90;;;;;;4900996;29;20392;-80
2022/01/04 00:54:20;;;;;;;8.30;3.37;;;6.20;99.90;;;;;;4899118;29;20483;-80
2022/01/04 00:56:47;;;;;;;6.05;3.25;;;6.20;99.90;;;;;;4884230;29;20405;-80
2022/01/04 00:59:14;;;;;;;6.17;3.10;;;6.30;99.90;;;;;;4884302;29;20476;-80
2022/01/04 01:01:40;;;;;;;8.75;3.55;;;6.30;99.90;;;;;;4882227;29;20420;-79
2022/01/04 01:04:07;;;;;;;5.97;3.47;;;6.30;99.90;;;;;;4884032;29;20893;-79
2022/01/04 01:06:33;;;;;;;8.43;3.40;;;6.30;99.90;;;;;;4884130;29;20437;-79
2022/01/04 01:08:59;;;;;;;5.95;3.05;;;6.30;99.90;;;;;;4885805;29;20390;-79
2022/01/04 01:11:25;;;;;;;6.15;3.15;;;6.30;99.90;;;;;;4902135;29;20415;-81
2022/01/04 01:13:51;;;;;;;5.50;2.88;;;6.40;99.90;;;;;;4884404;29;20421;-81
2022/01/04 01:16:17;;;;;;;5.75;2.80;;;6.40;99.90;;;;;;4884265;29;20847;-80
2022/01/04 01:18:43;;;;;;;5.00;2.85;;;6.30;99.90;;;;;;4901011;29;20382;-80
2022/01/04 01:21:09;;;;;;;5.22;2.70;;;6.40;99.90;;;;;;4883240;29;20745;-79
2022/01/04 01:23:38;;;;;;;6.57;2.83;;;6.50;99.90;;;;;;4900858;29;20401;-79
2022/01/04 01:26:06;;;;;;;7.57;2.63;;;6.40;99.90;;;;;;4901959;29;20384;-80
2022/01/04 01:28:33;;;;;;;5.35;2.90;;;6.50;99.90;;;;;;4901239;29;20404;-80
2022/01/04 01:30:59;;;;;;;4.35;2.40;;;6.50;99.90;;;;;;4900890;29;20395;-79
2022/01/04 01:33:27;;;;;;;6.88;2.85;;;6.40;99.90;;;;;;4901199;29;20385;-80
2022/01/04 01:35:53;;;;;;;5.75;2.40;;;6.40;99.90;;;;;;4883753;29;20393;-81
2022/01/04 01:38:19;;;;;;;4.47;2.70;;;6.40;99.90;;;;;;4900976;29;20491;-80
2022/01/04 01:40:47;;;;;;;5.50;2.63;;;6.30;99.90;;;;;;4900480;29;20932;-80
2022/01/04 01:43:13;;;;;;;4.97;2.50;;;6.40;99.90;;;;;;4900293;29;20421;-80
2022/01/04 01:45:39;;;;;;;6.03;2.80;;;6.40;99.90;;;;;;4883599;29;20405;-81
2022/01/04 01:48:06;;;;;;;4.70;2.50;;;6.40;99.90;;;;;;4883392;29;20752;-80
2022/01/04 01:50:31;;;;;;;4.75;2.40;;;6.30;99.90;;;;;;4901481;29;20393;-81
2022/01/04 01:52:57;;;;;;;6.05;2.72;;;6.30;99.90;;;;;;4901677;29;20381;-80
2022/01/04 01:55:24;;;;;;;3.97;2.30;;;6.30;99.90;;;;;;4901212;29;20381;-80
2022/01/04 01:57:50;;;;;;;5.85;2.60;;;6.30;99.90;;;;;;4901463;29;20401;-80
2022/01/04 02:00:19;;;;;;;4.70;2.50;;;6.40;99.90;;;;;;4885009;29;20400;-80
2022/01/04 02:02:44;;;;;;;5.63;2.75;;;6.30;99.90;;;;;;4900862;29;20464;-79
2022/01/04 02:05:10;;;;;;;5.50;2.65;;;6.30;99.90;;;;;;4900439;29;20393;-80
2022/01/04 02:07:38;;;;;;;7.03;2.65;;;6.40;99.90;;;;;;4900954;29;20884;-78
2022/01/04 02:10:06;;;;;;;6.90;2.70;;;6.30;99.90;;;;;;4901851;29;20434;-80
2022/01/04 02:12:37;;;;;;;5.13;2.60;;;6.20;99.90;;;;;;4885471;29;20393;-79
2022/01/04 02:15:05;;;;;;;6.05;2.20;;;6.20;99.90;;;;;;4902287;29;20401;-80
2022/01/04 02:17:31;;;;;;;4.82;2.53;;;6.20;99.90;;;;;;4889385;29;20955;-80
2022/01/04 02:19:58;;;;;;;5.57;2.53;;;6.10;99.90;;;;;;4900674;29;20417;-79
2022/01/04 02:22:24;;;;;;;5.93;2.40;;;6.20;99.90;;;;;;4899903;29;20401;-79
2022/01/04 02:24:50;;;;;;;5.63;2.40;;;6.20;99.90;;;;;;4900137;29;20433;-81
2022/01/04 02:27:16;;;;;;;5.68;2.50;;;6.10;99.90;;;;;;4882080;29;20876;-78
2022/01/04 02:29:44;;;;;;;5.72;2.15;;;6.20;99.90;;;;;;4900908;29;20397;-79
2022/01/04 02:32:10;;;;;;;4.97;2.40;;;6.20;99.90;;;;;;4899737;29;20428;-80
2022/01/04 02:34:36;;;;;;;5.95;2.30;;;6.20;99.90;;;;;;4884967;29;20749;-79
2022/01/04 02:37:02;;;;;;;5.15;2.58;;;6.30;99.90;;;;;;4902332;29;20381;-78
2022/01/04 02:39:29;;;;;;;6.35;2.90;;;6.20;99.90;;;;;;4901221;29;20868;-80
2022/01/04 02:41:55;;;;;;;4.97;2.50;;;6.20;99.90;;;;;;4900124;29;20408;-80
2022/01/04 02:44:21;;;;;;;4.53;2.10;;;6.10;99.90;;;;;;4899192;29;20401;-79
2022/01/04 02:46:46;;;;;;;5.88;2.40;;;6.10;99.90;;;;;;4898530;29;20424;-80
2022/01/04 02:49:12;;;;;;;6.25;2.28;;;6.10;99.90;;;;;;4899713;29;20470;-79
2022/01/04 02:51:38;;;;;;;3.47;2.20;;;6.10;99.90;;;;;;4899373;29;20416;-81
2022/01/04 02:54:04;;;;;;;4.65;2.17;;;6.20;99.90;;;;;;4897678;29;20836;-79
2022/01/04 02:56:30;;;;;;;5.85;2.25;;;6.10;99.90;;;;;;4897608;29;20424;-81
2022/01/04 02:59:02;;;;;;;5.90;2.25;;;6.20;99.90;;;;;;4899145;29;20785;-79
2022/01/04 03:01:28;;;;;;;3.58;2.10;;;6.10;99.90;;;;;;4898020;29;20846;-79
2022/01/04 03:03:54;;;;;;;4.17;2.00;;;6.20;99.90;;;;;;4880719;29;20400;-81
2022/01/04 03:06:19;;;;;;;3.27;1.80;;;6.20;99.90;;;;;;4880607;29;20385;-80
2022/01/04 03:08:45;;;;;;;3.83;1.80;;;6.10;99.90;;;;;;4897692;29;20378;-80
2022/01/04 03:11:11;;;;;;;5.90;2.15;;;6.10;99.90;;;;;;4881516;29;20425;-81
2022/01/04 03:13:36;;;;;;;5.63;1.93;;;6.10;99.90;;;;;;4896556;29;20385;-80
2022/01/04 03:16:02;;;;;;;4.85;2.10;;;6.10;99.90;;;;;;4895931;29;20393;-81
2022/01/04 03:18:27;;;;;;;3.15;1.70;;;6.20;99.90;;;;;;4896104;29;20388;-79
2022/01/04 03:20:53;;;;;;;4.17;2.10;;;6.20;99.90;;;;;;4895935;29;20389;-82
2022/01/04 03:23:19;;;;;;;3.43;1.90;;;6.10;99.90;;;;;;4879185;29;20772;-81
2022/01/04 03:25:44;;;;;;;2.70;1.85;;;6.10;99.90;;;;;;4895940;29;20903;-80
2022/01/04 03:28:10;;;;;;;3.75;1.90;;;6.10;99.90;;;;;;4898642;29;20385;-81
2022/01/04 03:30:36;;;;;;;3.80;2.30;;;6.10;99.90;;;;;;4882960;29;20377;-81
2022/01/04 03:33:01;;;;;;;5.87;2.20;;;6.10;99.90;;;;;;4899840;29;20412;-81
2022/01/04 03:35:27;;;;;;;3.67;1.92;;;6.00;99.90;;;;;;4899705;29;20385;-80
2022/01/04 03:37:53;;;;;;;5.40;2.00;;;5.90;99.90;;;;;;4899465;29;20421;-80
2022/01/04 03:40:20;;;;;;;5.28;2.20;;;5.80;99.90;;;;;;4899771;29;20412;-81
2022/01/04 03:42:45;;;;;;;3.40;2.08;;;5.90;99.90;;;;;;4898798;29;20405;-80
2022/01/04 03:45:11;;;;;;;3.72;2.20;;;5.80;99.90;;;;;;4882476;29;20472;-81
2022/01/04 03:47:37;;;;;;;4.20;1.90;;;5.60;99.90;;;;;;4882077;29;20404;-81
2022/01/04 03:50:04;;;;;;;4.77;2.20;;;5.70;99.90;;;;;;4899113;29;20472;-81
2022/01/04 03:52:30;;;;;;;3.97;1.90;;;5.60;99.90;;;;;;4899353;29;20385;-80
2022/01/04 03:54:57;;;;;;;4.17;2.40;;;5.70;99.90;;;;;;4900038;29;20382;-82
2022/01/04 03:57:23;;;;;;;3.97;2.10;;;5.60;99.90;;;;;;4866643;29;20455;-80
2022/01/04 03:59:48;;;;;;;3.50;2.07;;;5.60;99.90;;;;;;4900000;29;20900;-79
2022/01/04 04:02:14;;;;;;;5.13;2.23;;;5.50;99.90;;;;;;4906156;29;20409;-79
2022/01/04 04:04:39;;;;;;;2.63;1.90;;;5.50;99.90;;;;;;4883934;29;20393;-80
2022/01/04 04:07:05;;;;;;;2.55;1.80;;;5.50;99.90;;;;;;4898883;29;20440;-79
2022/01/04 04:09:34;;;;;;;4.67;2.23;;;5.50;99.90;;;;;;4881683;29;20401;-80
2022/01/04 04:12:01;;;;;;;3.03;2.10;;;5.40;99.90;;;;;;4898228;29;20403;-81
2022/01/04 04:14:28;;;;;;;3.95;2.00;;;5.40;99.90;;;;;;4881771;29;20389;-81
2022/01/04 04:16:54;;;;;;;3.55;2.00;;;5.40;99.90;;;;;;4882044;29;20401;-81
2022/01/04 04:19:20;;;;;;;3.63;2.00;;;5.40;99.90;;;;;;4881897;29;20396;-79
2022/01/04 04:21:46;;;;;;;2.45;1.90;;;5.30;99.90;;;;;;4898529;29;20405;-83
2022/01/04 04:24:11;;;;;;;4.65;2.28;;;5.30;99.90;;;;;;4898433;29;20397;-78
2022/01/04 04:26:37;;;;;;;3.03;1.80;;;5.30;99.90;;;;;;4898189;29;20385;-83
2022/01/04 04:29:02;;;;;;;3.65;2.05;;;5.30;99.90;;;;;;4881647;29;20390;-78
2022/01/04 04:31:28;;;;;;;3.95;2.10;;;5.30;99.90;;;;;;4898367;29;20424;-79
2022/01/04 04:33:54;;;;;;;3.80;2.17;;;5.30;99.90;;;;;;4899415;29;20389;-78
2022/01/04 04:36:19;;;;;;;5.60;2.47;;;5.20;99.90;;;;;;4898607;29;20378;-79
2022/01/04 04:38:45;;;;;;;5.00;2.40;;;5.20;99.90;;;;;;4896702;29;20833;-79
2022/01/04 04:41:11;;;;;;;3.85;2.60;;;5.20;99.90;;;;;;4897303;29;20881;-79
2022/01/04 04:43:38;;;;;;;2.40;2.00;;;5.20;99.90;;;;;;4897501;29;20449;-79
2022/01/04 04:46:04;;;;;;;2.97;2.10;;;5.20;99.90;;;;;;4897355;29;20385;-79
2022/01/04 04:48:29;;;;;;;4.30;2.10;;;5.20;99.90;;;;;;4898380;29;20395;-80
2022/01/04 04:50:55;;;;;;;3.43;2.13;;;5.10;99.90;;;;;;4882266;29;20757;-79
2022/01/04 04:53:21;;;;;;;3.50;2.10;;;5.10;99.90;;;;;;4897149;29;20881;-81
2022/01/04 04:55:47;;;;;;;5.50;3.10;;;5.10;99.90;;;;;;4899029;29;20385;-81
2022/01/04 04:58:12;;;;;;;5.80;2.92;;;5.10;99.90;;;;;;4898589;29;20516;-81
2022/01/04 05:00:38;;;;;;;5.03;3.10;;;5.00;99.90;;;;;;4899040;29;20389;-80
2022/01/04 05:03:04;;;;;;;4.95;3.05;;;5.00;99.90;;;;;;4899315;29;20430;-80
2022/01/04 05:05:30;;;;;;;5.95;3.20;;;5.10;99.90;;;;;;4899110;29;20385;-79
2022/01/04 05:07:55;;;;;;;6.53;3.65;;;5.20;99.90;;;;;;4881780;29;20445;-80
2022/01/04 05:10:21;;;;;;;5.37;3.10;;;5.20;99.90;;;;;;4898221;29;20393;-79
2022/01/04 05:12:46;;;;;;;3.90;3.27;;;5.30;99.90;;;;;;4898213;29;20396;-79
2022/01/04 05:15:12;;;;;;;5.53;2.90;;;5.40;99.90;;;;;;4898110;29;20385;-79
2022/01/04 05:17:38;;;;;;;6.53;3.55;;;5.40;99.90;;;;;;4898222;29;20411;-81
2022/01/04 05:20:04;;;;;;;4.70;3.20;;;5.40;99.90;;;;;;4897502;29;20476;-79
2022/01/04 05:22:30;;;;;;;5.00;3.25;;;5.40;99.90;;;;;;4897684;29;20421;-81
2022/01/04 05:24:55;;;;;;;6.10;3.55;;;5.40;99.90;;;;;;4881445;29;20394;-80
2022/01/04 05:27:21;;;;;;;5.97;3.80;;;5.40;99.90;;;;;;4898694;29;20385;-79
2022/01/04 05:29:47;;;;;;;5.33;3.90;;;5.40;99.90;;;;;;4898644;29;20389;-81
2022/01/04 05:32:13;;;;;;;6.22;4.20;;;5.40;99.90;;;;;;4897338;29;20942;-80
2022/01/04 05:34:38;;;;;;;7.22;4.63;;;5.40;99.90;;;;;;4898137;29;20888;-80
2022/01/04 05:37:04;;;;;;;8.32;4.25;;;5.40;99.90;;;;;;4880259;29;20502;-79
2022/01/04 05:39:30;;;;;;;6.65;4.28;;;5.40;99.90;;;;;;4897883;29;20401;-81
2022/01/04 05:41:56;;;;;;;5.87;4.17;;;5.40;99.90;;;;;;4900477;29;20476;-78
2022/01/04 05:44:21;;;;;;;5.43;3.93;;;5.40;99.90;;;;;;4901241;29;20483;-79
2022/01/04 05:46:47;;;;;;;6.78;3.70;;;5.40;99.90;;;;;;4896928;29;20915;-79
2022/01/04 05:49:12;;;;;;;6.57;3.60;;;5.40;99.90;;;;;;4896681;29;20879;-80
2022/01/04 05:51:38;;;;;;;5.27;3.57;;;5.40;99.90;;;;;;4896097;29;20433;-80
2022/01/04 05:54:04;;;;;;;5.60;3.70;;;5.40;99.90;;;;;;4879880;29;20400;-81
2022/01/04 05:56:30;;;;;;;7.60;4.25;;;5.40;99.90;;;;;;4894925;29;20504;-80
2022/01/04 05:58:55;;;;;;;7.53;3.95;;;5.40;99.90;;;;;;4896657;29;20768;-81
2022/01/04 06:01:21;;;;;;;6.32;3.80;;;5.40;99.90;;;;;;4899113;29;20521;-79
2022/01/04 06:03:47;;;;;;;6.33;3.67;;;5.40;99.90;;;;;;4897576;29;20904;-81
2022/01/04 06:06:13;;;;;;;4.90;3.93;;;5.40;99.90;;;;;;4896623;29;20388;-81
2022/01/04 06:08:39;;;;;;;5.68;4.03;;;5.40;99.90;;;;;;4879562;29;20516;-80
2022/01/04 06:11:07;;;;;;;7.07;4.07;;;5.40;99.90;;;;;;4896856;29;20385;-81
2022/01/04 06:16:16;;;;;;;8.23;4.68;;;5.50;99.90;;;;;;4896213;29;20942;-79
2022/01/04 06:18:44;;;;;;;7.93;5.23;;;5.50;99.90;;;;;;4896868;29;20397;-81
2022/01/04 06:21:11;;;;;;;7.50;5.68;;;5.50;99.90;;;;;;4895800;29;20389;-81
2022/01/04 06:23:38;;;;;;;7.00;5.35;;;5.50;99.90;;;;;;4894786;29;20802;-80
2022/01/04 06:26:04;;;;;;;8.90;5.60;;;5.60;99.90;;;;;;4878753;29;20397;-80
2022/01/04 06:28:29;;;;;;;7.45;5.43;;;5.60;99.90;;;;;;4896194;29;20408;-80
2022/01/04 06:30:55;;;;;;;7.27;5.17;;;5.60;99.90;;;;;;4895779;29;20448;-81
2022/01/04 06:33:21;;;;;;;7.50;5.30;;;5.60;99.90;;;;;;4895093;29;20924;-81
2022/01/04 06:35:50;;;;;;;8.02;5.40;;;5.70;99.90;;;;;;4895614;29;20397;-82
2022/01/04 06:38:16;;;;;;;9.70;5.60;;;5.70;99.90;;;;;;4895117;29;20382;-81
2022/01/04 06:40:42;;;;;;;7.45;5.38;;;5.70;99.90;;;;;;4895680;29;20396;-81
2022/01/04 06:43:08;;;;;;;6.78;5.22;;;5.70;99.90;;;;;;4895571;29;20458;-82
2022/01/04 06:45:34;;;;;;;6.43;5.07;;;5.70;99.90;;;;;;4895814;29;20508;-81
2022/01/04 06:47:59;;;;;;;7.87;4.80;;;5.70;99.90;;;;;;4895121;29;20390;-80
2022/01/04 06:50:25;;;;;;;7.20;5.20;;;5.70;99.90;;;;;;4895497;29;20385;-81
2022/01/04 06:52:51;;;;;;;6.95;4.93;;;5.70;99.90;;;;;;4895714;29;20440;-80
2022/01/04 06:55:16;;;;;;;6.95;4.88;;;5.70;99.90;;;;;;4880728;29;20422;-80
2022/01/04 06:57:43;;;;;;;7.00;5.20;;;5.70;99.90;;;;;;4895636;29;20397;-81
2022/01/04 07:00:09;;;;;;;9.40;5.28;;;5.70;99.90;;;;;;4878671;29;20444;-81
2022/01/04 07:02:35;;;;;;;6.07;4.97;;;5.70;99.90;;;;;;4880339;29;20401;-82
2022/01/04 07:05:01;;;;;;;8.15;5.15;;;5.70;99.90;;;;;;4898983;29;20718;-82
2022/01/04 07:07:26;;;;;;;5.97;5.07;;;5.80;99.90;;;;;;4899341;29;20381;-80
2022/01/04 07:09:52;;;;;;;8.53;6.27;;;5.80;99.90;;;;;;4882145;29;20392;-80
2022/01/04 07:12:18;;;;;;;8.20;5.85;;;5.80;99.90;;;;;;4898922;29;20496;-81
2022/01/04 07:14:43;;;;;;;9.75;6.30;;;5.80;99.90;;;;;;4899659;29;20389;-80
2022/01/04 07:17:09;;;;;;;7.77;5.90;;;5.80;99.90;;;;;;4898993;29;20951;-81
2022/01/04 07:19:34;;;;;;;9.53;6.30;;;5.90;99.90;;;;;;4899053;29;20409;-80
2022/01/04 07:22:00;;;;;;;7.60;6.15;;;5.90;99.90;;;;;;4898916;29;20409;-80
2022/01/04 07:24:26;;;;;;;10.52;6.30;;;5.90;99.90;;;;;;4901262;29;20393;-81
2022/01/04 07:26:53;;;;;;;8.07;6.37;;;6.00;99.90;;;;;;4898848;29;20468;-81
2022/01/04 07:29:18;;;;;;;10.17;7.03;;;6.00;99.90;;;;;;4898905;29;20923;-81
2022/01/04 07:31:44;;;;;;;7.73;6.23;;;6.00;99.90;;;;;;4890258;29;20405;-80
2022/01/04 07:34:09;;;;;;;10.02;7.43;;;6.00;99.90;;;;;;4891302;29;21160;-80
2022/01/04 07:36:35;;;;;;;9.00;7.23;;;6.00;99.90;;;;;;4895447;29;20931;-81
2022/01/04 07:39:01;;;;;;;10.73;7.03;;;6.10;99.90;;;;;;4896424;29;20386;-80
2022/01/04 07:41:26;;;;;;;11.63;7.07;;;6.10;99.90;;;;;;4894334;29;21086;-81
2022/01/04 07:43:53;;;;;;;10.38;6.60;;;6.10;99.90;;;;;;4877390;29;20437;-81
2022/01/04 07:46:19;;;;;;;7.70;6.15;;;6.00;99.90;;;;;;4896051;29;20381;-81
2022/01/04 07:48:45;;;;;;;10.13;6.95;;;6.10;99.90;;;;;;4895220;29;20388;-80
2022/01/04 07:51:11;;;;;;;8.50;6.77;;;6.10;99.90;;;;;;4895020;29;20936;-80
2022/01/04 07:53:38;;;;;;;7.65;6.55;;;6.10;99.90;;;;;;4878356;29;20484;-80
2022/01/04 07:56:04;;;;;;;8.00;7.15;;;6.10;99.90;;;;;;4879047;29;20393;-80
2022/01/04 07:58:30;;;;;;;10.68;9.27;;;6.20;99.90;;;;;;4885914;29;20424;-81
2022/01/04 08:00:55;;;;;;;11.88;8.63;;;6.20;99.90;;;;;;4896892;29;20408;-80
2022/01/04 08:03:21;;;;;;;9.53;8.53;;;6.20;99.90;;;;;;4897317;29;20445;-81
2022/01/04 08:05:47;;;;;;;13.53;9.73;;;6.20;99.90;;;;;;4896423;29;20385;-80
2022/01/04 08:08:13;;;;;;;12.75;9.10;;;6.20;99.90;;;;;;4897626;29;20396;-81
2022/01/04 08:10:39;;;;;;;11.25;7.75;;;6.30;99.90;;;;;;4881028;29;20405;-80
2022/01/04 08:13:05;;;;;;;10.02;7.95;;;6.40;99.90;;;;;;4880336;29;20397;-80
2022/01/04 08:15:31;;;;;;;10.30;8.70;;;6.40;99.90;;;;;;4880512;29;20440;-81
2022/01/04 08:17:58;;;;;;;11.53;7.67;;;6.50;99.90;;;;;;4880442;29;20421;-79
2022/01/04 08:20:23;;;;;;;9.45;7.65;;;6.50;99.90;;;;;;4897984;29;20389;-79
2022/01/04 08:22:50;;;;;;;8.37;6.60;;;6.50;99.90;;;;;;4897797;29;20417;-80
2022/01/04 08:25:16;;;;;;;10.13;6.75;;;6.60;99.90;;;;;;4897624;29;20460;-80
2022/01/04 08:27:42;;;;;;;8.93;6.33;;;6.70;99.90;;;;;;4880317;29;20565;-81
2022/01/04 08:30:10;;;;;;;7.57;6.28;;;6.70;99.90;;;;;;4880544;29;20396;-81
2022/01/04 08:32:37;;;;;;;6.50;5.15;;;6.80;99.90;;;;;;4897119;29;20522;-79
2022/01/04 08:35:03;;;;;;;11.02;5.75;;;6.90;99.90;;;;;;4880737;29;20397;-80
2022/01/04 08:37:30;;;;;;;9.95;5.90;;;7.00;99.90;;;;;;4881591;29;20488;-82
2022/01/04 08:39:56;;;;;;;7.85;4.70;;;7.10;99.90;;;;;;4882162;29;20764;-81
2022/01/04 08:42:22;;;;;;;6.30;4.63;;;7.20;99.90;;;;;;4898764;29;20401;-80
2022/01/04 08:44:48;;;;;;;8.98;4.47;;;7.20;99.90;;;;;;4883707;29;20409;-79
2022/01/04 08:47:14;;;;;;;4.45;3.95;;;7.40;99.90;;;;;;4899800;29;20373;-80
2022/01/04 08:49:40;;;;;;;5.57;4.00;;;7.30;99.90;;;;;;4900192;29;20384;-80
2022/01/04 08:52:07;;;;;;;5.72;4.57;;;7.30;99.90;;;;;;4899795;29;20425;-80
2022/01/04 08:54:33;;;;;;;5.70;4.03;;;7.30;99.90;;;;;;4881871;29;20441;-80
2022/01/04 08:56:59;;;;;;;5.70;4.10;;;7.30;99.90;;;;;;4898110;29;20464;-80
2022/01/04 08:59:25;;;;;;;5.85;3.80;;;7.40;99.90;;;;;;4882043;29;20389;-80
2022/01/04 09:01:51;;;;;;;5.95;3.50;;;7.40;99.90;;;;;;4901446;29;20849;-80
2022/01/04 09:04:16;;;;;;;5.00;3.70;;;7.50;99.90;;;;;;4898674;29;20472;-81
2022/01/04 09:06:42;;;;;;;4.47;3.42;;;7.50;99.90;;;;;;4897801;29;20876;-79
2022/01/04 09:09:08;;;;;;;6.67;3.97;;;7.60;99.90;;;;;;4897789;29;20413;-80
2022/01/04 09:11:33;;;;;;;6.83;3.50;;;7.50;99.90;;;;;;4898131;29;20453;-80
2022/01/04 09:19:18;;;;;;;4.25;3.85;;;7.60;99.90;;;;;;4896740;29;20729;-79
2022/01/04 09:21:43;;;;;;;4.47;3.72;;;7.50;99.90;;;;;;4894713;29;20393;-80
2022/01/04 09:24:09;;;;;;;6.40;3.70;;;7.50;99.90;;;;;;4894800;29;20373;-79
2022/01/04 09:26:35;;;;;;;6.35;4.10;;;7.60;99.90;;;;;;4895137;29;20382;-80
2022/01/04 09:29:00;;;;;;;5.18;4.03;;;7.70;99.90;;;;;;4895537;29;20385;-80
2022/01/04 09:31:28;;;;;;;4.93;3.00;;;7.80;99.90;;;;;;4895541;29;20419;-80
2022/01/04 09:33:56;;;;;;;5.63;4.18;;;7.70;99.90;;;;;;4878141;29;20397;-80
2022/01/04 09:36:22;;;;;;;5.78;3.90;;;7.70;99.90;;;;;;4896041;29;20951;-80
2022/01/04 09:38:48;;;;;;;4.15;3.40;;;7.70;99.90;;;;;;4896070;29;20493;-80
2022/01/04 09:41:14;;;;;;;3.97;3.47;;;7.70;99.90;;;;;;4896434;29;20853;-80
2022/01/04 09:43:39;;;;;;;6.03;3.13;;;7.80;99.90;;;;;;4896566;29;20421;-79
2022/01/04 09:46:05;;;;;;;5.15;3.20;;;7.70;99.90;;;;;;4895994;29;20397;-80
2022/01/04 09:48:31;;;;;;;3.77;2.87;;;7.70;99.90;;;;;;4896441;29;20468;-80
2022/01/04 09:50:57;;;;;;;5.87;3.60;;;7.70;99.90;;;;;;4868855;29;20401;-80
2022/01/04 09:53:24;;;;;;;3.83;3.00;;;7.60;99.90;;;;;;4892210;29;20499;-79
2022/01/04 09:55:51;;;;;;;5.18;3.28;;;7.60;99.90;;;;;;4891229;29;20405;-80
2022/01/04 09:58:19;;;;;;;3.05;2.53;;;7.70;99.90;;;;;;4893886;29;21058;-80
2022/01/04 10:00:45;;;;;;;4.53;2.65;;;7.70;99.90;;;;;;4894263;29;20385;-80
2022/01/04 10:03:40;;;;;;;4.07;3.00;;;7.80;99.90;;;;;;4893670;29;20432;-80
2022/01/04 10:06:14;;;;;;;5.60;3.03;;;7.80;99.90;;;;;;4871625;29;20386;-79
2022/01/04 10:08:53;;;;;;;3.38;2.72;;;7.80;99.90;;;;;;4876920;29;20401;-80
2022/01/04 10:11:39;;;;;;;5.57;3.00;;;7.80;99.90;;;;;;4893445;29;20532;-79
2022/01/04 10:14:28;;;;;;;4.53;3.10;;;7.70;99.90;;;;;;4876898;29;20429;-79
2022/01/04 10:16:57;;;;;;;4.93;2.72;;;7.70;99.90;;;;;;4893975;29;20386;-80
2022/01/04 10:19:29;;;;;;;4.53;2.65;;;7.70;99.90;;;;;;4893715;29;20469;-80
2022/01/04 10:22:27;;;;;;;4.17;2.83;;;7.70;99.90;;;;;;4877316;29;20587;-80
2022/01/04 10:25:04;;;;;;;3.03;2.25;;;7.70;99.90;;;;;;4878125;29;20388;-80
2022/01/04 10:27:45;;;;;;;3.97;2.95;;;7.80;99.90;;;;;;4895381;29;20386;-80
2022/01/04 10:30:22;;;;;;;4.27;2.90;;;7.80;99.90;;;;;;4879005;29;20389;-80
2022/01/04 10:33:03;;;;;;;4.65;3.05;;;7.80;99.90;;;;;;4883908;29;20413;-81
2022/01/04 10:35:34;;;;;;;3.90;2.90;;;7.80;99.90;;;;;;4890070;29;20381;-80
2022/01/04 10:38:10;;;;;;;4.15;2.95;;;7.80;99.90;;;;;;4876329;29;20377;-80
2022/01/04 10:40:36;;;;;;;4.90;2.92;;;7.90;99.90;;;;;;4889062;29;20393;-80
2022/01/04 10:43:29;;;;;;;4.40;2.55;;;7.80;99.90;;;;;;4872579;29;20420;-80
2022/01/04 10:45:55;;;;;;;4.20;2.60;;;7.80;99.90;;;;;;4888422;29;21037;-80
2022/01/04 10:48:22;;;;;;;3.58;2.63;;;7.90;99.90;;;;;;4875631;29;20400;-81
2022/01/04 10:50:51;;;;;;;3.42;2.50;;;7.80;99.90;;;;;;4876244;29;20440;-80
2022/01/04 10:53:31;;;;;;;4.00;2.70;;;7.80;99.90;;;;;;4877412;29;20801;-80
2022/01/04 10:56:00;;;;;;;4.22;2.78;;;7.70;99.90;;;;;;4878471;29;20387;-79
2022/01/04 10:58:41;;;;;;;6.10;3.28;;;7.70;99.90;;;;;;4877788;29;20498;-79
2022/01/04 11:01:10;;;;;;;5.72;2.97;;;7.70;99.90;;;;;;4876533;29;20450;-79
2022/01/04 11:03:38;;;;;;;6.83;2.93;;;7.80;99.90;;;;;;4875076;29;20906;-79
2022/01/04 11:06:12;;;;;;;4.07;2.85;;;7.80;99.90;;;;;;4859762;29;20387;-79
2022/01/04 11:08:38;;;;;;;4.53;2.80;;;7.90;99.90;;;;;;4876680;29;20394;-79
2022/01/04 11:11:04;;;;;;;5.38;3.00;;;7.90;99.90;;;;;;4876336;29;20378;-79
2022/01/04 11:13:30;;;;;;;4.28;2.97;;;7.90;99.90;;;;;;4860013;29;20534;-79
2022/01/04 11:15:56;;;;;;;3.55;2.83;;;8.00;99.90;;;;;;4876704;29;20540;-80
2022/01/04 11:18:22;;;;;;;3.63;2.92;;;8.00;99.90;;;;;;4876390;29;20395;-80
2022/01/04 11:20:49;;;;;;;4.15;3.13;;;7.90;99.90;;;;;;4876457;29;20493;-79
2022/01/04 11:23:15;;;;;;;3.13;2.60;;;7.90;99.90;;;;;;4875055;29;20439;-79
2022/01/04 11:25:44;;;;;;;3.67;2.60;;;8.00;99.90;;;;;;4876617;29;20941;-80
2022/01/04 11:28:13;;;;;;;3.55;2.40;;;7.90;99.90;;;;;;4875346;29;20470;-80
2022/01/04 11:31:20;;;;;;;4.38;2.50;;;8.00;99.90;;;;;;4876516;29;20418;-80
2022/01/04 11:33:55;;;;;;;3.42;2.25;;;7.90;99.90;;;;;;4875887;29;20401;-80
2022/01/04 11:36:21;;;;;;;3.67;2.35;;;8.00;99.90;;;;;;4859573;29;20451;-80
2022/01/04 11:38:48;;;;;;;3.70;2.03;;;8.10;99.90;;;;;;4876510;29;20892;-80
2022/01/04 11:41:42;;;;;;;6.78;2.83;;;8.20;99.90;;;;;;4874903;29;20778;-80
2022/01/04 11:44:25;;;;;;;5.47;2.47;;;8.20;99.90;;;;;;4876174;29;20395;-80
2022/01/04 11:47:15;;;;;;;3.15;2.45;;;8.20;99.90;;;;;;4876440;29;20979;-80
2022/01/04 11:50:10;;;;;;;5.43;2.70;;;8.30;99.90;;;;;;4877590;29;20411;-80
2022/01/04 11:53:06;;;;;;;5.45;3.25;;;8.40;99.90;;;;;;4878493;29;20491;-79
2022/01/04 11:55:36;;;;;;;4.57;2.80;;;8.50;99.90;;;;;;4878730;29;20390;-79
2022/01/04 11:58:14;;;;;;;5.20;3.13;;;8.40;99.90;;;;;;4881372;29;20429;-79
2022/01/04 12:01:06;;;;;;;4.23;3.07;;;8.50;99.90;;;;;;4897724;29;20473;-79
2022/01/04 12:03:44;;;;;;;4.70;3.15;;;8.50;99.90;;;;;;4880140;29;20946;-79
2022/01/04 12:06:11;;;;;;;3.35;2.88;;;8.60;99.90;;;;;;4897885;29;20730;-80
2022/01/04 12:08:48;;;;;;;3.13;2.67;;;8.60;99.90;;;;;;4897505;29;20401;-79
2022/01/04 12:11:26;;;;;;;3.90;2.70;;;8.60;99.90;;;;;;4881102;29;20397;-80
2022/01/04 12:14:00;;;;;;;3.25;2.70;;;8.60;99.90;;;;;;4897596;29;20441;-79
2022/01/04 12:16:45;;;;;;;3.00;2.50;;;8.50;99.90;;;;;;4897315;29;20395;-80
2022/01/04 12:19:15;;;;;;;2.60;2.33;;;8.60;99.90;;;;;;4897443;29;20872;-79
2022/01/04 12:22:03;;;;;;;2.70;2.50;;;8.60;99.90;;;;;;4897183;29;20947;-80
2022/01/04 12:24:43;;;;;;;3.22;2.63;;;8.30;99.90;;;;;;4897335;29;20413;-80
2022/01/04 12:27:11;;;;;;;3.67;2.90;;;8.40;99.90;;;;;;4879720;29;20453;-79
2022/01/04 12:29:37;;;;;;;3.45;2.72;;;8.30;99.90;;;;;;4897531;29;20385;-80
2022/01/04 12:32:07;;;;;;;3.00;2.70;;;8.30;99.90;;;;;;4897169;29;20704;-80
2022/01/04 12:34:57;;;;;;;3.40;2.80;;;8.40;99.90;;;;;;4880751;29;20373;-80
2022/01/04 12:37:23;;;;;;;3.25;2.80;;;8.30;99.90;;;;;;4879553;29;20476;-80
2022/01/04 12:39:50;;;;;;;3.40;2.50;;;8.40;99.90;;;;;;4880496;29;20545;-80
2022/01/04 12:42:18;;;;;;;3.08;2.75;;;8.40;99.90;;;;;;4880318;29;20448;-80
2022/01/04 12:44:50;;;;;;;3.00;2.70;;;8.30;99.90;;;;;;4897162;29;20520;-81
2022/01/04 12:47:18;;;;;;;4.35;2.72;;;8.20;99.90;;;;;;4880534;29;20381;-80
2022/01/04 12:49:44;;;;;;;3.78;2.67;;;8.20;99.90;;;;;;4896855;29;20397;-80
2022/01/04 12:52:10;;;;;;;3.10;2.50;;;8.30;99.90;;;;;;4882945;29;20470;-80
2022/01/04 12:54:40;;;;;;;3.53;2.60;;;8.30;99.90;;;;;;4899036;29;20396;-80
2022/01/04 12:57:11;;;;;;;3.60;2.80;;;8.40;99.90;;;;;;4895382;29;20389;-81
2022/01/04 12:59:40;;;;;;;3.63;2.60;;;8.40;99.90;;;;;;4896445;29;20390;-80
2022/01/04 13:02:15;;;;;;;4.93;3.58;;;8.50;99.90;;;;;;4895274;29;20924;-81
2022/01/04 13:04:43;;;;;;;4.75;4.00;;;8.50;99.90;;;;;;4896834;29;20389;-80
2022/01/04 13:07:31;;;;;;;5.25;3.92;;;8.50;99.90;;;;;;4896337;29;20754;-81
2022/01/04 13:10:14;;;;;;;5.97;4.60;;;8.50;99.90;;;;;;4895154;29;20382;-81